createdAt,value
2023-03-06T00:00:47.124Z,30.85
2023-03-06T00:03:14.484Z,30.67
2023-03-06T00:05:42.411Z,33.63
2023-03-06T00:08:09.674Z,31.65
2023-03-06T00:10:37.146Z,31.05
2023-03-06T00:13:07.590Z,33.40
2023-03-06T00:15:35.160Z,29.35
2023-03-06T00:18:06.486Z,34.28
2023-03-06T00:20:34.972Z,28.38
2023-03-06T00:23:02.929Z,31.92
2023-03-06T00:25:30.449Z,31.48
2023-03-06T00:27:57.948Z,23.63
2023-03-06T00:30:25.747Z,23.17
2023-03-06T00:32:53.774Z,20.75
2023-03-06T00:35:21.599Z,25.35
2023-03-06T00:37:49.020Z,21.90
2023-03-06T00:40:19.416Z,23.85
2023-03-06T00:42:47.133Z,20.42
2023-03-06T00:45:15.508Z,21.27
2023-03-06T00:47:43.295Z,20.98
2023-03-06T00:50:11.232Z,26.90
2023-03-06T00:52:38.727Z,23.10
2023-03-06T00:55:06.704Z,20.95
2023-03-06T00:57:34.107Z,20.42
2023-03-06T01:00:01.909Z,21.48
2023-03-06T01:02:29.287Z,22.95
2023-03-06T01:04:56.729Z,25.17
2023-03-06T01:07:24.083Z,26.95
2023-03-06T01:09:51.387Z,25.65
2023-03-06T01:12:18.752Z,19.70
2023-03-06T01:14:46.012Z,23.08
2023-03-06T01:17:13.476Z,23.95
2023-03-06T01:19:42.238Z,24.33
2023-03-06T01:22:09.616Z,22.05
2023-03-06T01:24:38.286Z,25.73
2023-03-06T01:27:05.646Z,24.08
2023-03-06T01:29:33.020Z,28.48
2023-03-06T01:32:00.311Z,21.08
2023-03-06T01:34:27.712Z,28.85
2023-03-06T01:36:54.976Z,24.38
2023-03-06T01:39:22.327Z,28.73
2023-03-06T01:41:49.899Z,28.40
2023-03-06T01:44:17.195Z,31.73
2023-03-06T01:46:45.724Z,25.95
2023-03-06T01:49:21.711Z,24.67
2023-03-06T01:52:00.944Z,31.35
2023-03-06T01:54:51.022Z,24.00
2023-03-06T01:57:19.753Z,25.35
2023-03-06T01:59:51.674Z,27.83
2023-03-06T02:04:46.582Z,25.75
2023-03-06T02:07:15.662Z,30.25
2023-03-06T02:09:42.979Z,29.10
2023-03-06T02:12:14.581Z,29.23
2023-03-06T02:14:42.762Z,27.10
2023-03-06T02:17:13.121Z,29.48
2023-03-06T02:19:58.470Z,26.42
2023-03-06T02:22:43.602Z,26.10
2023-03-06T02:25:35.817Z,27.67
2023-03-06T02:28:05.047Z,29.13
2023-03-06T02:30:32.766Z,26.25
2023-03-06T02:33:01.658Z,30.80
2023-03-06T02:35:31.694Z,30.25
2023-03-06T02:38:06.120Z,28.58
2023-03-06T02:40:33.554Z,33.17
2023-03-06T02:43:01.717Z,26.88
2023-03-06T02:45:37.224Z,31.52
2023-03-06T02:48:04.900Z,27.30
2023-03-06T02:50:32.531Z,26.98
2023-03-06T02:53:01.718Z,27.15
2023-03-06T02:55:31.496Z,27.92
2023-03-06T02:57:59.108Z,31.13
2023-03-06T03:00:27.105Z,26.02
2023-03-06T03:02:54.645Z,30.45
2023-03-06T03:05:22.306Z,28.23
2023-03-06T03:07:56.669Z,26.25
2023-03-06T03:10:24.228Z,27.90
2023-03-06T03:12:51.841Z,30.08
2023-03-06T03:15:20.468Z,25.42
2023-03-06T03:17:47.947Z,28.55
2023-03-06T03:20:18.356Z,29.58
2023-03-06T03:22:53.682Z,27.13
2023-03-06T03:25:25.062Z,26.77
2023-03-06T03:27:55.260Z,27.02
2023-03-06T03:30:23.179Z,30.42
2023-03-06T03:32:50.762Z,28.55
2023-03-06T03:35:18.258Z,27.10
2023-03-06T03:37:46.715Z,33.65
2023-03-06T03:40:14.663Z,26.38
2023-03-06T03:42:41.999Z,29.92
2023-03-06T03:45:10.942Z,32.67
2023-03-06T03:47:38.338Z,32.10
2023-03-06T03:50:07.040Z,29.17
2023-03-06T03:52:35.305Z,28.02
2023-03-06T03:55:03.295Z,30.48
2023-03-06T03:57:30.668Z,32.50
2023-03-06T03:59:59.038Z,28.15
2023-03-06T04:02:44.861Z,29.48
2023-03-06T04:05:21.841Z,33.25
2023-03-06T04:07:49.388Z,30.25
2023-03-06T04:10:17.206Z,32.67
2023-03-06T04:12:44.774Z,26.77
2023-03-06T04:15:12.906Z,28.50
2023-03-06T04:17:40.617Z,30.63
2023-03-06T04:22:40.136Z,29.25
2023-03-06T04:25:08.430Z,29.80
2023-03-06T04:27:36.397Z,31.30
2023-03-06T04:30:05.536Z,29.20
2023-03-06T04:32:34.232Z,32.90
2023-03-06T04:35:02.362Z,33.83
2023-03-06T04:37:35.123Z,34.75
2023-03-06T04:40:02.644Z,29.63
2023-03-06T04:42:30.293Z,29.13
2023-03-06T04:44:57.990Z,29.30
2023-03-06T04:47:25.240Z,35.78
2023-03-06T04:49:52.501Z,32.45
2023-03-06T04:52:19.867Z,32.03
2023-03-06T04:54:47.164Z,29.55
2023-03-06T04:57:14.520Z,33.42
2023-03-06T04:59:41.754Z,33.88
2023-03-06T05:02:09.013Z,35.10
2023-03-06T05:04:36.268Z,31.10
2023-03-06T05:07:03.531Z,35.30
2023-03-06T05:09:30.755Z,30.35
2023-03-06T05:11:58.031Z,31.95
2023-03-06T05:14:25.324Z,33.40
2023-03-06T05:16:52.618Z,31.73
2023-03-06T05:19:19.833Z,35.65
2023-03-06T05:21:47.454Z,34.63
2023-03-06T05:24:15.003Z,33.35
2023-03-06T05:26:42.238Z,33.45
2023-03-06T05:29:09.558Z,36.28
2023-03-06T05:31:36.741Z,40.60
2023-03-06T05:34:04.031Z,36.08
2023-03-06T05:36:31.259Z,36.30
2023-03-06T05:38:58.593Z,38.78
2023-03-06T05:41:25.806Z,37.30
2023-03-06T05:43:53.490Z,36.78
2023-03-06T05:46:20.748Z,36.03
2023-03-06T05:48:47.985Z,34.95
2023-03-06T05:51:15.411Z,36.00
2023-03-06T05:53:42.649Z,37.42
2023-03-06T05:56:10.086Z,35.42
2023-03-06T05:58:38.178Z,36.17
2023-03-06T06:01:17.239Z,35.90
2023-03-06T06:03:45.482Z,36.65
2023-03-06T06:06:15.125Z,35.35
2023-03-06T06:08:42.980Z,34.60
2023-03-06T06:11:12.221Z,36.38
2023-03-06T06:13:40.326Z,37.75
2023-03-06T06:16:13.146Z,32.80
2023-03-06T06:18:41.452Z,34.15
2023-03-06T06:21:10.898Z,34.88
2023-03-06T06:23:38.132Z,41.15
2023-03-06T06:26:07.480Z,38.28
2023-03-06T06:28:35.155Z,35.60
2023-03-06T06:31:12.364Z,37.10
2023-03-06T06:33:40.652Z,39.65
2023-03-06T06:36:16.441Z,40.92
2023-03-06T06:38:44.091Z,33.95
2023-03-06T06:41:36.125Z,38.33
2023-03-06T06:43:59.214Z,38.47
2023-03-06T06:47:14.372Z,34.67
2023-03-06T06:49:15.504Z,34.72
2023-03-06T06:51:42.729Z,36.50
2023-03-06T06:54:11.242Z,39.55
2023-03-06T06:56:38.447Z,43.38
2023-03-06T06:59:16.193Z,36.65
2023-03-06T07:01:45.126Z,33.40
2023-03-06T07:04:16.044Z,43.60
2023-03-06T07:06:43.276Z,37.45
2023-03-06T07:09:10.664Z,38.65
2023-03-06T07:11:38.873Z,41.55
2023-03-06T07:14:06.229Z,39.78
2023-03-06T07:16:33.434Z,36.88
2023-03-06T07:19:00.775Z,36.15
2023-03-06T07:21:27.945Z,34.65
2023-03-06T07:23:57.536Z,36.42
2023-03-06T07:26:28.382Z,38.90
2023-03-06T07:28:55.683Z,34.25
2023-03-06T07:31:26.268Z,35.05
2023-03-06T07:33:54.740Z,37.85
2023-03-06T07:36:23.617Z,36.22
2023-03-06T07:38:50.974Z,35.80
2023-03-06T07:41:21.862Z,35.55
2023-03-06T07:43:50.090Z,35.95
2023-03-06T07:46:18.018Z,32.25
2023-03-06T07:48:45.528Z,36.47
2023-03-06T07:51:16.065Z,39.80
2023-03-06T07:53:43.336Z,33.15
2023-03-06T07:56:11.973Z,38.03
2023-03-06T07:58:41.778Z,36.72
2023-03-06T08:01:14.827Z,36.65
2023-03-06T08:03:42.401Z,33.42
2023-03-06T08:06:14.903Z,38.88
2023-03-06T08:08:44.681Z,34.17
2023-03-06T08:11:13.865Z,34.25
2023-03-06T08:13:41.689Z,34.72
2023-03-06T08:16:09.311Z,32.92
2023-03-06T08:18:38.184Z,29.02
2023-03-06T08:21:16.626Z,29.38
2023-03-06T08:23:44.387Z,35.53
2023-03-06T08:26:17.261Z,32.58
2023-03-06T08:28:45.190Z,28.23
2023-03-06T08:31:19.895Z,26.92
2023-03-06T08:33:48.028Z,29.85
2023-03-06T08:36:15.341Z,29.88
2023-03-06T08:38:42.615Z,29.88
2023-03-06T08:41:09.952Z,28.35
2023-03-06T08:43:37.378Z,26.95
2023-03-06T08:46:04.934Z,24.83
2023-03-06T08:48:32.165Z,29.38
2023-03-06T08:50:59.899Z,33.97
2023-03-06T08:53:41.784Z,28.83
2023-03-06T08:56:34.062Z,25.48
2023-03-06T08:59:03.920Z,31.42
2023-03-06T09:01:34.718Z,26.20
2023-03-06T09:04:04.601Z,25.52
2023-03-06T09:06:34.224Z,28.83
2023-03-06T09:09:01.605Z,26.67
2023-03-06T09:11:29.296Z,32.72
2023-03-06T09:13:57.107Z,28.75
2023-03-06T09:16:24.893Z,29.55
2023-03-06T09:18:54.036Z,25.23
2023-03-06T09:21:25.195Z,24.45
2023-03-06T09:23:52.789Z,25.60
2023-03-06T09:26:20.551Z,27.08
2023-03-06T09:28:47.802Z,28.10
2023-03-06T09:31:20.047Z,25.60
2023-03-06T09:33:48.300Z,26.90
2023-03-06T09:36:22.762Z,23.83
2023-03-06T09:38:50.568Z,27.83
2023-03-06T09:41:26.898Z,23.38
2023-03-06T09:44:04.847Z,26.60
2023-03-06T09:46:41.387Z,29.15
2023-03-06T09:49:18.140Z,25.00
2023-03-06T09:51:51.151Z,22.48
2023-03-06T09:54:23.254Z,23.45
2023-03-06T09:56:50.953Z,25.80
2023-03-06T09:59:25.457Z,26.42
2023-03-06T10:02:02.928Z,24.30
2023-03-06T10:04:36.709Z,22.55
2023-03-06T10:07:35.013Z,24.48
2023-03-06T10:10:06.391Z,26.05
2023-03-06T10:12:42.876Z,24.27
2023-03-06T10:15:26.631Z,25.75
2023-03-06T10:17:57.380Z,21.92
2023-03-06T10:20:29.223Z,24.17
2023-03-06T10:23:25.192Z,21.20
2023-03-06T10:26:11.414Z,24.05
2023-03-06T10:28:49.050Z,27.35
2023-03-06T10:31:35.693Z,24.52
2023-03-06T10:34:23.053Z,21.67
2023-03-06T10:36:51.780Z,27.95
2023-03-06T10:39:22.508Z,24.20
2023-03-06T10:41:50.889Z,23.65
2023-03-06T10:44:21.304Z,22.25
2023-03-06T10:46:51.937Z,24.92
2023-03-06T10:49:40.947Z,20.48
2023-03-06T10:52:14.343Z,20.88
2023-03-06T10:54:45.132Z,20.13
2023-03-06T10:57:32.793Z,21.45
2023-03-06T11:00:05.426Z,20.90
2023-03-06T11:02:39.696Z,19.55
2023-03-06T11:05:18.725Z,19.92
2023-03-06T11:07:59.232Z,22.05
2023-03-06T11:10:27.971Z,21.33
2023-03-06T11:13:19.210Z,22.20
2023-03-06T11:16:15.433Z,23.52
2023-03-06T11:18:54.456Z,20.40
2023-03-06T11:21:31.485Z,18.10
2023-03-06T11:24:20.174Z,20.80
2023-03-06T11:26:58.461Z,19.60
2023-03-06T11:29:29.641Z,20.63
2023-03-06T11:32:05.597Z,17.67
2023-03-06T11:34:59.431Z,17.83
2023-03-06T11:37:32.715Z,20.88
2023-03-06T11:40:05.864Z,20.48
2023-03-06T11:42:42.038Z,19.05
2023-03-06T11:45:32.070Z,19.35
2023-03-06T11:48:14.316Z,19.73
2023-03-06T11:50:52.718Z,20.55
2023-03-06T11:53:23.292Z,18.63
2023-03-06T11:56:22.936Z,20.80
2023-03-06T11:59:14.841Z,20.00
2023-03-06T12:01:47.898Z,21.00
2023-03-06T12:04:45.984Z,20.23
2023-03-06T12:07:26.161Z,21.58
2023-03-06T12:12:48.990Z,21.05
2023-03-06T12:15:58.036Z,23.73
2023-03-06T12:18:53.099Z,18.38
2023-03-06T12:21:26.275Z,20.70
2023-03-06T12:24:17.834Z,22.60
2023-03-06T12:27:29.635Z,18.23
2023-03-06T12:30:18.301Z,20.00
2023-03-06T12:33:00.301Z,19.02
2023-03-06T12:35:58.535Z,16.05
2023-03-06T12:38:31.689Z,17.17
2023-03-06T12:41:13.331Z,18.95
2023-03-06T12:43:40.537Z,23.00
2023-03-06T12:46:18.043Z,20.30
2023-03-06T12:49:01.884Z,18.42
2023-03-06T12:51:30.220Z,19.83
2023-03-06T12:54:00.239Z,19.27
2023-03-06T12:56:28.726Z,19.35
2023-03-06T12:58:57.939Z,18.95
2023-03-06T13:02:04.263Z,20.10
2023-03-06T13:04:53.415Z,15.75
2023-03-06T13:07:47.456Z,20.13
2023-03-06T13:10:28.104Z,19.67
2023-03-06T13:13:05.091Z,18.88
2023-03-06T13:15:41.276Z,19.80
2023-03-06T13:18:24.990Z,18.80
2023-03-06T13:20:54.044Z,20.42
2023-03-06T13:23:32.537Z,17.67
2023-03-06T13:26:02.243Z,17.00
2023-03-06T13:28:50.181Z,18.42
2023-03-06T13:31:32.528Z,20.23
2023-03-06T13:34:04.617Z,16.67
2023-03-06T13:39:09.147Z,18.00
2023-03-06T13:41:58.188Z,16.85
2023-03-06T13:44:25.408Z,16.23
2023-03-06T13:47:28.345Z,18.10
2023-03-06T13:49:56.157Z,15.95
2023-03-06T13:53:01.468Z,16.73
2023-03-06T13:55:58.779Z,17.13
2023-03-06T13:58:31.847Z,14.32
2023-03-06T14:01:01.799Z,14.35
2023-03-06T14:04:05.077Z,16.13
2023-03-06T14:06:35.413Z,16.50
2023-03-06T14:09:06.878Z,15.52
2023-03-06T14:11:35.590Z,18.35
2023-03-06T14:14:03.565Z,16.95
2023-03-06T14:16:49.269Z,15.43
2023-03-06T14:19:19.296Z,17.30
2023-03-06T14:21:57.595Z,16.05
2023-03-06T14:24:35.226Z,21.95
2023-03-06T14:27:02.622Z,15.60
2023-03-06T14:29:30.785Z,15.80
2023-03-06T14:32:00.248Z,17.38
2023-03-06T14:34:30.280Z,18.02
2023-03-06T14:37:02.649Z,17.58
2023-03-06T14:39:40.324Z,18.58
2023-03-06T14:42:28.703Z,17.85
2023-03-06T14:45:17.299Z,19.98
2023-03-06T14:47:51.058Z,21.08
2023-03-06T14:50:23.398Z,23.08
2023-03-06T14:52:58.002Z,17.55
2023-03-06T14:55:28.131Z,18.58
2023-03-06T14:58:16.776Z,18.13
2023-03-06T15:00:46.066Z,20.38
2023-03-06T15:03:20.051Z,19.38
2023-03-06T15:05:48.828Z,19.73
2023-03-06T15:08:24.216Z,18.02
2023-03-06T15:11:00.043Z,19.13
2023-03-06T15:13:29.414Z,17.77
2023-03-06T15:16:02.195Z,17.90
2023-03-06T15:18:36.327Z,20.85
2023-03-06T15:21:18.260Z,18.88
2023-03-06T15:23:48.148Z,18.35
2023-03-06T15:26:31.819Z,19.77
2023-03-06T15:29:11.178Z,19.52
2023-03-06T15:31:43.778Z,19.00
2023-03-06T15:34:11.000Z,19.13
2023-03-06T15:36:39.507Z,18.52
2023-03-06T15:39:36.184Z,15.93
2023-03-06T15:42:15.136Z,23.52
2023-03-06T15:44:42.497Z,18.13
2023-03-06T15:47:11.991Z,17.20
2023-03-06T15:49:40.385Z,16.00
2023-03-06T15:52:08.127Z,19.95
2023-03-06T15:54:35.881Z,22.98
2023-03-06T15:57:06.378Z,17.75
2023-03-06T15:59:41.593Z,20.90
2023-03-06T16:02:18.024Z,18.67
2023-03-06T16:04:46.031Z,20.67
2023-03-06T16:07:13.885Z,21.08
2023-03-06T16:09:42.044Z,20.58
2023-03-06T16:12:20.879Z,23.65
2023-03-06T16:14:49.218Z,26.02
2023-03-06T16:17:17.125Z,24.63
2023-03-06T16:19:44.575Z,23.92
2023-03-06T16:22:12.300Z,23.67
2023-03-06T16:24:39.557Z,23.63
2023-03-06T16:27:07.117Z,24.67
2023-03-06T16:29:35.286Z,25.02
2023-03-06T16:32:02.769Z,23.95
2023-03-06T16:34:30.124Z,25.27
2023-03-06T16:36:58.206Z,23.05
2023-03-06T16:39:25.666Z,24.60
2023-03-06T16:41:52.970Z,26.83
2023-03-06T16:44:20.594Z,27.08
2023-03-06T16:46:50.193Z,25.67
2023-03-06T16:49:27.041Z,26.38
2023-03-06T16:51:54.972Z,23.48
2023-03-06T16:54:26.077Z,25.75
2023-03-06T16:56:53.338Z,29.15
2023-03-06T16:59:20.573Z,28.02
2023-03-06T17:01:47.958Z,28.63
2023-03-06T17:04:15.303Z,29.05
2023-03-06T17:06:43.240Z,26.42
2023-03-06T17:09:14.488Z,26.63
2023-03-06T17:11:44.927Z,27.83
2023-03-06T17:14:12.269Z,27.77
2023-03-06T17:16:40.568Z,27.38
2023-03-06T17:19:08.155Z,27.60
2023-03-06T17:21:38.460Z,28.00
2023-03-06T17:24:06.731Z,31.17
2023-03-06T17:26:36.545Z,26.52
2023-03-06T17:29:06.917Z,26.77
2023-03-06T17:31:34.325Z,28.88
2023-03-06T17:34:01.578Z,26.65
2023-03-06T17:36:30.714Z,27.92
2023-03-06T17:38:59.800Z,30.05
2023-03-06T17:41:27.520Z,28.13
2023-03-06T17:43:58.491Z,26.60
2023-03-06T17:46:26.111Z,30.30
2023-03-06T17:48:54.477Z,28.10
2023-03-06T17:51:21.672Z,27.50
2023-03-06T17:53:49.473Z,29.85
2023-03-06T17:56:16.826Z,28.98
2023-03-06T17:58:44.234Z,28.30
2023-03-06T18:01:12.943Z,28.27
2023-03-06T18:03:43.409Z,27.30
2023-03-06T18:06:11.154Z,30.63
2023-03-06T18:08:38.608Z,28.10
2023-03-06T18:11:07.959Z,28.05
2023-03-06T18:13:37.046Z,28.92
2023-03-06T18:16:05.739Z,26.73
2023-03-06T18:18:33.205Z,24.88
2023-03-06T18:21:09.164Z,24.58
2023-03-06T18:23:37.358Z,25.40
2023-03-06T18:26:14.191Z,28.02
2023-03-06T18:28:44.668Z,25.52
2023-03-06T18:31:26.746Z,29.38
2023-03-06T18:36:26.409Z,32.42
2023-03-06T18:38:53.726Z,27.40
2023-03-06T18:41:22.047Z,24.33
2023-03-06T18:43:54.506Z,27.30
2023-03-06T18:46:22.198Z,26.80
2023-03-06T18:48:49.511Z,26.92
2023-03-06T18:51:17.182Z,25.13
2023-03-06T18:53:44.480Z,28.65
2023-03-06T18:56:20.369Z,30.40
2023-03-06T18:58:48.400Z,26.88
2023-03-06T19:01:15.900Z,35.67
2023-03-06T19:03:43.455Z,29.58
2023-03-06T19:06:14.343Z,27.85
2023-03-06T19:08:41.772Z,28.27
2023-03-06T19:11:14.889Z,29.40
2023-03-06T19:13:42.785Z,28.38
2023-03-06T19:16:18.082Z,28.77
2023-03-06T19:18:45.366Z,27.92
2023-03-06T19:21:15.352Z,31.33
2023-03-06T19:23:43.591Z,29.50
2023-03-06T19:26:11.503Z,28.77
2023-03-06T19:28:41.542Z,26.27
2023-03-06T19:31:13.272Z,29.73
2023-03-06T19:33:42.023Z,27.75
2023-03-06T19:36:12.219Z,28.60
2023-03-06T19:38:39.761Z,30.35
2023-03-06T19:41:11.922Z,31.25
2023-03-06T19:43:40.833Z,33.95
2023-03-06T19:46:13.156Z,29.48
2023-03-06T19:48:41.409Z,27.98
2023-03-06T19:51:09.969Z,27.60
2023-03-06T19:53:38.914Z,28.77
2023-03-06T19:56:08.132Z,30.30
2023-03-06T19:58:35.497Z,27.60
2023-03-06T20:01:07.948Z,28.23
2023-03-06T20:03:35.253Z,30.38
2023-03-06T20:06:06.272Z,29.52
2023-03-06T20:08:33.582Z,30.35
2023-03-06T20:11:00.965Z,29.35
2023-03-06T20:13:29.479Z,30.90
2023-03-06T20:15:58.349Z,29.40
2023-03-06T20:18:26.187Z,31.23
2023-03-06T20:21:01.416Z,34.45
2023-03-06T20:23:28.722Z,31.27
2023-03-06T20:25:56.034Z,31.33
2023-03-06T20:28:23.680Z,33.05
2023-03-06T20:30:51.048Z,31.38
2023-03-06T20:33:19.692Z,35.33
2023-03-06T20:35:47.058Z,34.42
2023-03-06T20:38:14.824Z,33.22
2023-03-06T20:40:43.464Z,30.00
2023-03-06T20:43:10.930Z,30.58
2023-03-06T20:45:38.215Z,31.77
2023-03-06T20:48:05.598Z,30.80
2023-03-06T20:50:32.822Z,33.50
2023-03-06T20:53:00.019Z,30.35
2023-03-06T20:55:27.264Z,37.05
2023-03-06T20:57:55.001Z,29.30
2023-03-06T21:00:24.562Z,30.25
2023-03-06T21:02:52.203Z,36.00
2023-03-06T21:05:19.535Z,31.10
2023-03-06T21:07:46.914Z,32.63
2023-03-06T21:10:15.120Z,31.67
2023-03-06T21:12:42.423Z,29.95
2023-03-06T21:15:10.048Z,30.42
2023-03-06T21:17:37.259Z,30.50
2023-03-06T21:20:05.910Z,35.15
2023-03-06T21:22:33.197Z,29.83
2023-03-06T21:25:00.443Z,31.55
2023-03-06T21:27:27.687Z,27.65
2023-03-06T21:29:54.911Z,28.50
2023-03-06T21:32:23.192Z,29.15
2023-03-06T21:34:50.605Z,31.10
2023-03-06T21:37:17.839Z,27.05
2023-03-06T21:39:45.053Z,30.30
2023-03-06T21:42:12.260Z,28.52
2023-03-06T21:44:41.776Z,24.95
2023-03-06T21:47:11.106Z,29.83
2023-03-06T21:49:39.219Z,28.20
2023-03-06T21:52:06.896Z,26.05
2023-03-06T21:54:34.186Z,27.85
2023-03-06T21:57:01.412Z,25.30
2023-03-06T21:59:28.689Z,24.27
2023-03-06T22:01:55.965Z,26.95
2023-03-06T22:04:23.302Z,26.83
2023-03-06T22:06:50.567Z,25.83
2023-03-06T22:09:19.127Z,26.52
2023-03-06T22:11:46.330Z,26.70
2023-03-06T22:14:14.834Z,25.13
2023-03-06T22:16:42.241Z,26.38
2023-03-06T22:19:09.484Z,28.27
2023-03-06T22:21:36.736Z,25.40
2023-03-06T22:24:04.671Z,25.15
2023-03-06T22:26:31.917Z,29.92
2023-03-06T22:28:59.125Z,26.63
2023-03-06T22:31:28.749Z,27.23
2023-03-06T22:33:58.463Z,29.45
2023-03-06T22:36:26.853Z,28.17
2023-03-06T22:38:56.426Z,23.33
2023-03-06T22:41:23.906Z,26.67
2023-03-06T22:43:51.221Z,25.55
2023-03-06T22:46:18.873Z,23.50
2023-03-06T22:48:46.301Z,24.98
2023-03-06T22:51:16.470Z,26.70
2023-03-06T22:53:44.749Z,27.30
2023-03-06T22:56:15.285Z,25.92
2023-03-06T22:58:44.775Z,24.70
2023-03-06T23:01:23.279Z,23.17
2023-03-06T23:03:52.463Z,26.15
2023-03-06T23:06:31.898Z,29.35
2023-03-06T23:09:05.957Z,24.58
2023-03-06T23:11:52.341Z,25.52
2023-03-06T23:14:38.444Z,28.48
2023-03-06T23:17:24.395Z,24.55
2023-03-06T23:20:12.021Z,22.05
2023-03-06T23:22:58.091Z,24.75
2023-03-06T23:25:44.012Z,29.75
2023-03-06T23:28:12.315Z,33.17
2023-03-06T23:30:39.837Z,27.75
2023-03-06T23:33:07.486Z,25.20
2023-03-06T23:35:36.085Z,30.98
2023-03-06T23:38:03.500Z,28.67
2023-03-06T23:40:33.654Z,29.02
2023-03-06T23:43:01.491Z,28.58
2023-03-06T23:45:28.739Z,29.83
2023-03-06T23:47:56.403Z,27.45
2023-03-06T23:50:24.727Z,27.33
2023-03-06T23:52:55.673Z,28.13
2023-03-06T23:55:22.966Z,27.30
2023-03-06T23:57:50.238Z,28.15
